Tessalit, Mali
Current Conditions -  °F | °C
As of 2:30 PM on Saturday 25 Oct 2014 (Local Time) from DAAT Reporting Station
Clear Clear  
Wind Chill: 82°   Ceiling: Unl
Heat Index: 82°   Visibility: 6mi
Dew Point: 30°   Wind: 10mph
Humidity: 15%   Direction: 310°NW
Pressure: 30.12"   Gusts: 22mph
Location:  20.28°N, 0.98°E
Report Text: DAAT 251430Z 31009G19KT 270V010 CAVOK 28/M01 Q1020
Loading
Personal Weather Stations






























Interactive Weather Map
Tropical Storm Tracking
New forecast layout! Learn more

10-Day Weather Forecast

Advertisements
Track Severe Weather on mobile